createdAt,value
2019-06-01T00:00:44.810Z,16.61
2019-06-01T00:01:46.658Z,16.53
2019-06-01T00:02:55.742Z,16.58
2019-06-01T00:03:45.017Z,16.54
2019-06-01T00:04:45.382Z,16.54
2019-06-01T00:05:44.957Z,16.51
2019-06-01T00:06:43.337Z,16.47
2019-06-01T00:07:44.996Z,16.46
2019-06-01T00:08:47.197Z,16.47
2019-06-01T00:09:45.066Z,16.43
2019-06-01T00:10:45.111Z,16.51
2019-06-01T00:11:45.380Z,16.51
2019-06-01T00:12:43.654Z,16.56
2019-06-01T00:13:45.518Z,16.57
2019-06-01T00:14:45.445Z,16.65
2019-06-01T00:15:44.440Z,16.74
2019-06-01T00:16:47.893Z,16.76
2019-06-01T00:17:44.478Z,16.76
2019-06-01T00:18:44.340Z,16.72
2019-06-01T00:19:44.738Z,16.68
2019-06-01T00:20:44.671Z,16.71
2019-06-01T00:21:43.613Z,16.54
2019-06-01T00:22:43.783Z,16.56
2019-06-01T00:23:44.673Z,16.66
2019-06-01T00:24:44.154Z,16.68
2019-06-01T00:25:45.072Z,16.53
2019-06-01T00:26:44.106Z,16.57
2019-06-01T00:27:44.760Z,16.5
2019-06-01T00:28:44.125Z,16.56
2019-06-01T00:29:45.071Z,16.64
2019-06-01T00:30:43.839Z,16.6
2019-06-01T00:31:45.164Z,16.57
2019-06-01T00:32:43.521Z,16.54
2019-06-01T00:33:43.794Z,16.69
2019-06-01T00:34:43.779Z,16.66
2019-06-01T00:35:43.833Z,16.65
2019-06-01T00:36:43.947Z,16.71
2019-06-01T00:37:43.554Z,16.71
2019-06-01T00:38:44.107Z,16.64
2019-06-01T00:39:43.851Z,16.68
2019-06-01T00:40:44.130Z,16.69
2019-06-01T00:41:44.098Z,16.69
2019-06-01T00:42:44.422Z,16.71
2019-06-01T00:43:44.540Z,16.71
2019-06-01T00:44:44.357Z,16.71
2019-06-01T00:45:44.692Z,16.75
2019-06-01T00:46:44.905Z,16.76
2019-06-01T00:47:45.108Z,16.71
2019-06-01T00:48:43.848Z,16.66
2019-06-01T00:49:45.078Z,16.65
2019-06-01T00:50:44.809Z,16.66
2019-06-01T00:51:44.709Z,16.6
2019-06-01T00:52:43.493Z,16.66
2019-06-01T00:53:45.230Z,16.58
2019-06-01T00:54:43.731Z,16.53
2019-06-01T00:55:43.501Z,16.5
2019-06-01T00:56:43.550Z,16.47
2019-06-01T00:57:43.527Z,16.46
2019-06-01T00:58:43.733Z,16.33
2019-06-01T00:59:43.701Z,16.42
2019-06-01T01:00:51.940Z,16.5
2019-06-01T01:01:43.902Z,16.49
2019-06-01T01:02:43.979Z,16.47
2019-06-01T01:03:43.977Z,16.46
2019-06-01T01:04:44.261Z,16.5
2019-06-01T01:05:44.594Z,16.47
2019-06-01T01:06:44.411Z,16.43
2019-06-01T01:07:44.486Z,16.5
2019-06-01T01:08:44.679Z,16.54
2019-06-01T01:09:44.668Z,16.5
2019-06-01T01:10:44.702Z,16.56
2019-06-01T01:11:43.262Z,16.56
2019-06-01T01:12:44.926Z,16.58
2019-06-01T01:13:43.230Z,16.5
2019-06-01T01:14:43.693Z,16.54
2019-06-01T01:15:43.202Z,16.54
2019-06-01T01:16:43.453Z,16.47
2019-06-01T01:17:43.463Z,16.31
2019-06-01T01:18:43.543Z,16.36
2019-06-01T01:19:43.690Z,16.42
2019-06-01T01:20:43.695Z,16.43
2019-06-01T01:21:43.441Z,16.53
2019-06-01T01:22:43.194Z,16.56
2019-06-01T01:23:43.720Z,16.64
2019-06-01T01:24:43.204Z,16.57
2019-06-01T01:25:43.436Z,16.6
2019-06-01T01:26:43.430Z,16.56
2019-06-01T01:27:43.198Z,16.6
2019-06-01T01:28:43.200Z,16.61
2019-06-01T01:29:43.719Z,16.61
2019-06-01T01:30:57.984Z,16.57
2019-06-01T01:31:43.665Z,16.64
2019-06-01T01:32:43.738Z,16.54
2019-06-01T01:33:43.692Z,16.53
2019-06-01T01:34:43.419Z,16.54
2019-06-01T01:35:43.182Z,16.49
2019-06-01T01:36:43.414Z,16.46
2019-06-01T01:37:43.671Z,16.42
2019-06-01T01:38:43.698Z,16.33
2019-06-01T01:39:43.175Z,16.33
2019-06-01T01:40:43.674Z,16.38
2019-06-01T01:41:43.654Z,16.36
2019-06-01T01:42:43.664Z,16.26
2019-06-01T01:43:43.406Z,16.28
2019-06-01T01:44:43.162Z,16.26
2019-06-01T01:45:43.646Z,16.24
2019-06-01T01:46:43.654Z,16.15
2019-06-01T01:47:43.399Z,16.33
2019-06-01T01:48:43.642Z,16.28
2019-06-01T01:49:43.645Z,16.21
2019-06-01T01:50:43.706Z,16.15
2019-06-01T01:51:43.692Z,16.15
2019-06-01T01:52:43.646Z,16.17
2019-06-01T01:53:43.389Z,16.08
2019-06-01T01:54:43.390Z,16.02
2019-06-01T01:55:43.397Z,16.05
2019-06-01T01:56:43.628Z,16.05
2019-06-01T01:57:43.390Z,16.08
2019-06-01T01:58:43.636Z,16.12
2019-06-01T01:59:43.379Z,16.04
2019-06-01T02:00:43.139Z,16.09
2019-06-01T02:01:43.619Z,16
2019-06-01T02:02:43.630Z,16
2019-06-01T02:03:43.129Z,15.92
2019-06-01T02:04:43.622Z,15.95
2019-06-01T02:05:43.424Z,16.09
2019-06-01T02:06:43.628Z,16.01
2019-06-01T02:07:43.463Z,15.92
2019-06-01T02:08:43.356Z,15.98
2019-06-01T02:09:43.617Z,15.9
2019-06-01T02:10:43.392Z,15.98
2019-06-01T02:11:43.668Z,15.9
2019-06-01T02:12:43.360Z,15.94
2019-06-01T02:13:43.644Z,15.86
2019-06-01T02:14:43.120Z,15.9
2019-06-01T02:15:43.588Z,15.84
2019-06-01T02:16:43.344Z,15.86
2019-06-01T02:17:43.685Z,15.79
2019-06-01T02:18:43.612Z,15.84
2019-06-01T02:19:43.335Z,15.73
2019-06-01T02:20:43.584Z,15.76
2019-06-01T02:21:43.332Z,15.73
2019-06-01T02:22:43.077Z,15.72
2019-06-01T02:23:43.326Z,15.59
2019-06-01T02:24:43.330Z,15.76
2019-06-01T02:25:43.322Z,15.64
2019-06-01T02:26:43.321Z,15.62
2019-06-01T02:27:43.315Z,15.59
2019-06-01T02:28:43.312Z,15.61
2019-06-01T02:29:43.580Z,15.65
2019-06-01T02:30:43.580Z,15.55
2019-06-01T02:31:47.288Z,15.52
2019-06-01T02:32:43.574Z,15.55
2019-06-01T02:33:43.558Z,15.52
2019-06-01T02:34:43.558Z,15.51
2019-06-01T02:35:43.328Z,15.51
2019-06-01T02:36:43.541Z,15.51
2019-06-01T02:37:43.546Z,15.54
2019-06-01T02:38:43.538Z,15.57
2019-06-01T02:39:43.316Z,15.52
2019-06-01T02:40:43.324Z,15.54
2019-06-01T02:41:43.053Z,15.43
2019-06-01T02:42:43.518Z,15.42
2019-06-01T02:43:43.291Z,15.4
2019-06-01T02:44:43.281Z,15.42
2019-06-01T02:45:43.275Z,15.39
2019-06-01T02:46:43.526Z,15.4
2019-06-01T02:47:43.557Z,15.25
2019-06-01T02:48:43.525Z,15.31
2019-06-01T02:49:43.565Z,15.27
2019-06-01T02:50:43.528Z,15.24
2019-06-01T02:51:43.262Z,15.22
2019-06-01T02:52:43.265Z,15.21
2019-06-01T02:53:43.277Z,15.28
2019-06-01T02:54:43.520Z,15.27
2019-06-01T02:55:43.256Z,15.25
2019-06-01T02:56:43.277Z,15.4
2019-06-01T02:57:43.511Z,15.4
2019-06-01T02:58:43.501Z,15.4
2019-06-01T02:59:43.271Z,15.36
2019-06-01T03:00:43.488Z,15.43
2019-06-01T03:02:04.759Z,15.42
2019-06-01T03:02:43.484Z,15.44
2019-06-01T03:03:43.243Z,15.43
2019-06-01T03:04:43.219Z,15.42
2019-06-01T03:05:43.478Z,15.36
2019-06-01T03:06:43.484Z,15.43
2019-06-01T03:07:43.485Z,15.44
2019-06-01T03:08:43.231Z,15.4
2019-06-01T03:09:43.227Z,15.36
2019-06-01T03:10:43.237Z,15.39
2019-06-01T03:11:43.499Z,15.4
2019-06-01T03:12:43.470Z,15.44
2019-06-01T03:13:43.206Z,15.39
2019-06-01T03:14:43.457Z,15.42
2019-06-01T03:15:43.458Z,15.43
2019-06-01T03:16:45.105Z,15.33
2019-06-01T03:17:43.470Z,15.36
2019-06-01T03:18:43.467Z,15.28
2019-06-01T03:19:43.198Z,15.29
2019-06-01T03:20:43.449Z,15.33
2019-06-01T03:21:42.937Z,15.33
2019-06-01T03:22:43.441Z,15.29
2019-06-01T03:23:43.431Z,15.25
2019-06-01T03:24:43.198Z,15.37
2019-06-01T03:25:43.442Z,15.35
2019-06-01T03:26:43.168Z,15.36
2019-06-01T03:27:43.226Z,15.35
2019-06-01T03:28:43.425Z,15.46
2019-06-01T03:29:43.169Z,15.43
2019-06-01T03:30:47.902Z,15.42
2019-06-01T03:31:43.418Z,15.49
2019-06-01T03:32:43.446Z,15.4
2019-06-01T03:33:43.438Z,15.44
2019-06-01T03:34:43.152Z,15.57
2019-06-01T03:35:43.403Z,15.52
2019-06-01T03:36:43.150Z,15.59
2019-06-01T03:37:42.924Z,15.51
2019-06-01T03:38:43.159Z,15.57
2019-06-01T03:39:43.392Z,15.58
2019-06-01T03:40:43.141Z,15.61
2019-06-01T03:41:43.144Z,15.62
2019-06-01T03:42:43.146Z,15.64
2019-06-01T03:43:43.452Z,15.68
2019-06-01T03:44:43.153Z,15.55
2019-06-01T03:45:43.154Z,15.62
2019-06-01T03:46:43.143Z,15.68
2019-06-01T03:47:43.377Z,15.67
2019-06-01T03:48:43.397Z,15.65
2019-06-01T03:49:43.397Z,15.61
2019-06-01T03:50:43.370Z,15.57
2019-06-01T03:51:43.121Z,15.55
2019-06-01T03:52:43.379Z,15.55
2019-06-01T03:53:43.416Z,15.51
2019-06-01T03:54:43.365Z,15.4
2019-06-01T03:55:43.120Z,15.49
2019-06-01T03:56:43.104Z,15.58
2019-06-01T03:57:43.367Z,15.58
2019-06-01T03:58:43.356Z,15.72
2019-06-01T03:59:43.349Z,15.79
2019-06-01T04:00:43.345Z,15.94
2019-06-01T04:01:43.368Z,16.05
2019-06-01T04:02:43.348Z,16.29
2019-06-01T04:03:43.346Z,16.46
2019-06-01T04:04:43.336Z,16.68
2019-06-01T04:05:42.874Z,16.79
2019-06-01T04:06:43.103Z,16.84
2019-06-01T04:07:43.899Z,17.12
2019-06-01T04:08:43.342Z,17.22
2019-06-01T04:09:43.116Z,17.34
2019-06-01T04:10:43.345Z,17.56
2019-06-01T04:11:43.340Z,17.71
2019-06-01T04:12:43.091Z,17.9
2019-06-01T04:13:43.340Z,18.04
2019-06-01T04:14:43.352Z,18.22
2019-06-01T04:15:43.097Z,18.34
2019-06-01T04:16:43.094Z,18.43
2019-06-01T04:17:43.341Z,18.58
2019-06-01T04:18:43.144Z,18.62
2019-06-01T04:19:43.161Z,18.75
2019-06-01T04:20:43.404Z,18.8
2019-06-01T04:21:43.104Z,19.08
2019-06-01T04:22:43.098Z,19.15
2019-06-01T04:23:43.112Z,19.21
2019-06-01T04:24:43.361Z,19.27
2019-06-01T04:25:43.356Z,19.33
2019-06-01T04:26:43.364Z,19.36
2019-06-01T04:27:43.214Z,19.48
2019-06-01T04:28:43.167Z,19.54
2019-06-01T04:29:43.108Z,19.62
2019-06-01T04:30:43.387Z,19.74
2019-06-01T04:31:43.365Z,19.74
2019-06-01T04:32:54.508Z,19.74
2019-06-01T04:33:43.394Z,19.7
2019-06-01T04:34:43.134Z,19.74
2019-06-01T04:35:42.889Z,19.62
2019-06-01T04:36:43.131Z,19.7
2019-06-01T04:37:43.387Z,19.71
2019-06-01T04:38:42.901Z,19.67
2019-06-01T04:39:43.135Z,19.84
2019-06-01T04:40:43.418Z,19.85
2019-06-01T04:41:43.187Z,19.99
2019-06-01T04:42:43.457Z,20.03
2019-06-01T04:43:42.933Z,20.03
2019-06-01T04:44:43.460Z,20.21
2019-06-01T04:45:43.492Z,20.31
2019-06-01T04:46:43.168Z,20.41
2019-06-01T04:47:42.933Z,20.52
2019-06-01T04:48:43.168Z,20.58
2019-06-01T04:49:43.421Z,20.78
2019-06-01T04:50:43.430Z,20.69
2019-06-01T04:51:42.934Z,20.81
2019-06-01T04:52:43.436Z,20.97
2019-06-01T04:53:43.197Z,20.92
2019-06-01T04:54:43.185Z,21.02
2019-06-01T04:55:43.449Z,21.02
2019-06-01T04:56:43.488Z,21.15
2019-06-01T04:57:43.206Z,21.22
2019-06-01T04:58:43.465Z,21.33
2019-06-01T04:59:43.229Z,21.4
2019-06-01T05:00:43.227Z,21.36
2019-06-01T05:01:43.493Z,21.52
2019-06-01T05:02:42.999Z,21.67
2019-06-01T05:03:43.239Z,21.8
2019-06-01T05:04:46.067Z,21.92
2019-06-01T05:05:43.489Z,21.95
2019-06-01T05:06:43.243Z,21.92
2019-06-01T05:07:43.277Z,21.99
2019-06-01T05:08:43.255Z,21.89
2019-06-01T05:09:43.019Z,21.72
2019-06-01T05:10:43.515Z,21.62
2019-06-01T05:11:43.264Z,21.36
2019-06-01T05:12:43.285Z,21.22
2019-06-01T05:13:43.550Z,21.05
2019-06-01T05:14:43.562Z,21.06
2019-06-01T05:15:43.276Z,21.06
2019-06-01T05:16:43.279Z,21.11
2019-06-01T05:17:43.289Z,21.15
2019-06-01T05:18:43.303Z,21.24
2019-06-01T05:19:43.598Z,21.45
2019-06-01T05:20:43.315Z,21.64
2019-06-01T05:21:43.571Z,21.89
2019-06-01T05:22:43.598Z,22.14
2019-06-01T05:23:43.578Z,22.32
2019-06-01T05:24:43.603Z,22.53
2019-06-01T05:25:43.577Z,22.69
2019-06-01T05:26:43.582Z,22.96
2019-06-01T05:27:43.367Z,23.02
2019-06-01T05:28:43.355Z,23.13
2019-06-01T05:29:43.359Z,23.13
2019-06-01T05:30:43.358Z,23.25
2019-06-01T05:31:43.596Z,23.37
2019-06-01T05:32:43.617Z,23.37
2019-06-01T05:33:43.360Z,23.56
2019-06-01T05:34:43.615Z,23.65
2019-06-01T05:35:43.370Z,23.68
2019-06-01T05:36:43.385Z,23.77
2019-06-01T05:37:43.660Z,23.81
2019-06-01T05:38:43.671Z,23.93
2019-06-01T05:39:43.652Z,23.95
2019-06-01T05:40:43.432Z,24.05
2019-06-01T05:41:43.413Z,24.05
2019-06-01T05:42:43.719Z,24.29
2019-06-01T05:43:43.425Z,24.42
2019-06-01T05:44:43.189Z,24.63
2019-06-01T05:45:43.458Z,24.55
2019-06-01T05:46:43.193Z,24.57
2019-06-01T05:47:43.682Z,24.84
2019-06-01T05:48:43.443Z,24.61
2019-06-01T05:49:43.706Z,24.45
2019-06-01T05:50:43.463Z,24.47
2019-06-01T05:51:43.715Z,24.51
2019-06-01T05:52:44.568Z,24.6
2019-06-01T05:53:43.471Z,24.78
2019-06-01T05:54:43.730Z,24.98
2019-06-01T05:55:43.745Z,25.08
2019-06-01T05:56:43.510Z,25.13
2019-06-01T05:57:43.278Z,25.29
2019-06-01T05:58:43.509Z,25.48
2019-06-01T05:59:43.764Z,25.58
2019-06-01T06:00:43.879Z,25.68
2019-06-01T06:01:43.530Z,25.75
2019-06-01T06:02:43.544Z,25.95
2019-06-01T06:03:45.302Z,25.96
2019-06-01T06:04:43.798Z,26.09
2019-06-01T06:05:43.315Z,26.22
2019-06-01T06:06:43.562Z,26.38
2019-06-01T06:07:43.564Z,26.48
2019-06-01T06:08:43.829Z,26.52
2019-06-01T06:09:44.255Z,26.78
2019-06-01T06:10:43.595Z,26.85
2019-06-01T06:11:43.844Z,26.97
2019-06-01T06:12:43.612Z,27.1
2019-06-01T06:13:43.359Z,27.08
2019-06-01T06:14:43.615Z,27.12
2019-06-01T06:15:43.628Z,27.1
2019-06-01T06:16:43.908Z,27.07
2019-06-01T06:17:43.885Z,27.1
2019-06-01T06:18:43.643Z,27.17
2019-06-01T06:19:43.645Z,27.26
2019-06-01T06:20:43.912Z,27.27
2019-06-01T06:21:43.667Z,27.51
2019-06-01T06:22:46.079Z,27.6
2019-06-01T06:23:43.432Z,27.52
2019-06-01T06:24:43.940Z,27.68
2019-06-01T06:25:45.874Z,27.82
2019-06-01T06:26:43.703Z,27.75
2019-06-01T06:27:43.977Z,27.96
2019-06-01T06:28:43.733Z,28.15
2019-06-01T06:29:43.491Z,28.32
2019-06-01T06:30:43.777Z,28.41
2019-06-01T06:31:44.030Z,28.45
2019-06-01T06:32:43.505Z,28.49
2019-06-01T06:33:58.401Z,28.42
2019-06-01T06:34:43.785Z,28.44
2019-06-01T06:35:43.800Z,28.57
2019-06-01T06:36:44.069Z,28.63
2019-06-01T06:37:47.149Z,28.66
2019-06-01T06:38:44.058Z,28.64
2019-06-01T06:39:43.822Z,28.79
2019-06-01T06:40:44.076Z,28.7
2019-06-01T06:41:43.576Z,28.59
2019-06-01T06:42:43.829Z,28.64
2019-06-01T06:43:43.852Z,28.88
2019-06-01T06:44:43.837Z,29.12
2019-06-01T06:45:43.614Z,29.35
2019-06-01T06:46:44.107Z,29.27
2019-06-01T06:47:43.919Z,28.98
2019-06-01T06:48:43.893Z,29.04
2019-06-01T06:49:44.131Z,28.89
2019-06-01T06:50:44.176Z,28.86
2019-06-01T06:51:44.159Z,29.04
2019-06-01T06:52:43.948Z,29.13
2019-06-01T06:53:44.192Z,29.14
2019-06-01T06:54:44.188Z,29.22
2019-06-01T06:55:44.221Z,29.45
2019-06-01T06:56:44.229Z,29.59
2019-06-01T06:57:44.253Z,29.61
2019-06-01T06:58:43.953Z,29.9
2019-06-01T06:59:43.985Z,30.12
2019-06-01T07:00:44.244Z,30.51
2019-06-01T07:01:44.021Z,30.51
2019-06-01T07:02:43.999Z,30.72
2019-06-01T07:03:43.769Z,30.72
2019-06-01T07:04:44.036Z,30.87
2019-06-01T07:05:44.053Z,30.68
2019-06-01T07:06:43.851Z,30.61
2019-06-01T07:07:44.304Z,30.62
2019-06-01T07:08:43.802Z,30.84
2019-06-01T07:09:44.389Z,30.91
2019-06-01T07:10:44.104Z,30.94
2019-06-01T07:11:43.863Z,31.14
2019-06-01T07:12:43.858Z,31.27
2019-06-01T07:13:44.088Z,31.18
2019-06-01T07:14:44.119Z,31.1
2019-06-01T07:15:44.129Z,31.31
2019-06-01T07:16:44.149Z,31.07
2019-06-01T07:17:44.396Z,30.88
2019-06-01T07:18:44.139Z,30.68
2019-06-01T07:19:44.161Z,30.46
2019-06-01T07:20:44.173Z,30.47
2019-06-01T07:21:44.416Z,30.24
2019-06-01T07:22:44.426Z,30.19
2019-06-01T07:23:44.206Z,30.12
2019-06-01T07:24:43.959Z,29.86
2019-06-01T07:25:44.466Z,29.72
2019-06-01T07:26:44.461Z,29.75
2019-06-01T07:27:44.499Z,29.81
2019-06-01T07:28:47.088Z,29.94
2019-06-01T07:29:43.980Z,29.87
2019-06-01T07:30:54.610Z,29.69
2019-06-01T07:31:44.492Z,29.44
2019-06-01T07:32:44.487Z,28.98
2019-06-01T07:33:43.998Z,29.02
2019-06-01T07:34:47.279Z,29.23
2019-06-01T07:35:44.255Z,29.5
2019-06-01T07:36:44.570Z,29.75
2019-06-01T07:37:44.532Z,30
2019-06-01T07:38:44.551Z,30.24
2019-06-01T07:39:44.315Z,30.28
2019-06-01T07:40:44.364Z,30.1
2019-06-01T07:41:44.569Z,30.12
2019-06-01T07:42:44.343Z,30.4
2019-06-01T07:43:44.654Z,30.43
2019-06-01T07:44:44.350Z,30.32
2019-06-01T07:45:44.679Z,30.46
2019-06-01T07:46:44.366Z,30.62
2019-06-01T07:47:44.361Z,30.96
2019-06-01T07:48:44.631Z,30.94
2019-06-01T07:49:44.473Z,31.03
2019-06-01T07:50:44.400Z,31.06
2019-06-01T07:51:44.658Z,31.36
2019-06-01T07:52:44.415Z,31.42
2019-06-01T07:53:44.663Z,31.62
2019-06-01T07:54:44.682Z,31.8
2019-06-01T07:55:44.670Z,31.92
2019-06-01T07:56:44.685Z,31.87
2019-06-01T07:57:48.141Z,31.81
2019-06-01T07:58:44.447Z,32.09
2019-06-01T07:59:44.207Z,32.07
2019-06-01T08:00:44.732Z,32.08
2019-06-01T08:01:44.487Z,32.23
2019-06-01T08:02:44.490Z,32.37
2019-06-01T08:03:44.735Z,32.37
2019-06-01T08:04:57.445Z,32.49
2019-06-01T08:05:44.246Z,32.56
2019-06-01T08:06:51.642Z,32.45
2019-06-01T08:07:44.561Z,32.58
2019-06-01T08:08:44.796Z,32.83
2019-06-01T08:09:44.767Z,32.96
2019-06-01T08:10:44.796Z,32.9
2019-06-01T08:11:44.826Z,32.65
2019-06-01T08:12:44.563Z,32.43
2019-06-01T08:13:44.864Z,32.23
2019-06-01T08:14:44.593Z,32.22
2019-06-01T08:15:44.589Z,32.41
2019-06-01T08:16:44.854Z,32.41
2019-06-01T08:17:44.882Z,32.55
2019-06-01T08:18:44.633Z,32.77
2019-06-01T08:19:44.673Z,32.87
2019-06-01T08:20:44.678Z,32.83
2019-06-01T08:21:44.891Z,32.74
2019-06-01T08:22:44.923Z,32.67
2019-06-01T08:23:44.646Z,32.56
2019-06-01T08:24:44.671Z,32.73
2019-06-01T08:25:44.421Z,32.82
2019-06-01T08:26:44.512Z,33.2
2019-06-01T08:27:44.935Z,33.42
2019-06-01T08:28:44.954Z,33.5
2019-06-01T08:29:44.708Z,33.84
2019-06-01T08:30:44.464Z,33.83
2019-06-01T08:31:45.003Z,33.83
2019-06-01T08:32:45.045Z,33.98
2019-06-01T08:33:45.796Z,33.89
2019-06-01T08:34:44.491Z,33.53
2019-06-01T08:35:45.015Z,33.4
2019-06-01T08:36:44.783Z,33.59
2019-06-01T08:37:44.525Z,33.52
2019-06-01T08:38:45.046Z,33.49
2019-06-01T08:39:44.797Z,33.37
2019-06-01T08:40:44.798Z,33.19
2019-06-01T08:41:44.833Z,32.96
2019-06-01T08:42:45.071Z,33.05
2019-06-01T08:43:44.823Z,33.17
2019-06-01T08:44:45.090Z,33.08
2019-06-01T08:45:44.888Z,33.02
2019-06-01T08:46:44.617Z,33.02
2019-06-01T08:47:44.864Z,33.08
2019-06-01T08:48:45.129Z,33.17
2019-06-01T08:49:45.149Z,33.14
2019-06-01T08:50:48.533Z,33
2019-06-01T08:51:44.898Z,32.86
2019-06-01T08:52:45.185Z,32.3
2019-06-01T08:53:44.909Z,31.87
2019-06-01T08:54:44.932Z,31.37
2019-06-01T08:55:44.930Z,30.81
2019-06-01T08:56:44.935Z,30.06
2019-06-01T08:57:45.205Z,29.47
2019-06-01T08:58:44.973Z,28.93
2019-06-01T08:59:44.740Z,28.72
2019-06-01T09:00:45.227Z,28.49
2019-06-01T09:01:44.978Z,28.48
2019-06-01T09:02:44.999Z,28.45
2019-06-01T09:03:51.379Z,28.37
2019-06-01T09:04:44.995Z,28.39
2019-06-01T09:05:45.257Z,28.23
2019-06-01T09:06:44.791Z,27.98
2019-06-01T09:07:45.307Z,27.87
2019-06-01T09:08:45.314Z,27.68
2019-06-01T09:09:45.276Z,27.6
2019-06-01T09:10:45.061Z,27.54
2019-06-01T09:11:45.068Z,27.36
2019-06-01T09:12:45.077Z,27.1
2019-06-01T09:13:45.067Z,26.96
2019-06-01T09:14:45.073Z,27
2019-06-01T09:15:45.333Z,26.95
2019-06-01T09:16:45.375Z,26.99
2019-06-01T09:17:45.096Z,27.1
2019-06-01T09:18:45.371Z,27.33
2019-06-01T09:19:45.106Z,27.36
2019-06-01T09:20:45.370Z,27.37
2019-06-01T09:21:45.372Z,27.3
2019-06-01T09:22:48.004Z,27.26
2019-06-01T09:23:44.892Z,27.35
2019-06-01T09:24:45.392Z,27.22
2019-06-01T09:25:45.391Z,27.14
2019-06-01T09:26:44.939Z,27.26
2019-06-01T09:27:45.157Z,27.36
2019-06-01T09:28:45.165Z,27.51
2019-06-01T09:29:49.247Z,27.52
2019-06-01T09:30:45.420Z,27.54
2019-06-01T09:31:45.490Z,27.48
2019-06-01T09:32:45.208Z,27.39
2019-06-01T09:33:45.203Z,27.21
2019-06-01T09:34:45.446Z,27.05
2019-06-01T09:36:00.016Z,27.02
2019-06-01T09:36:44.974Z,26.97
2019-06-01T09:37:48.196Z,27.14
2019-06-01T09:38:45.476Z,27.33
2019-06-01T09:39:45.234Z,27.49
2019-06-01T09:40:45.334Z,27.55
2019-06-01T09:41:45.484Z,27.6
2019-06-01T09:42:45.498Z,27.77
2019-06-01T09:43:45.017Z,27.75
2019-06-01T09:44:45.244Z,27.73
2019-06-01T09:45:45.494Z,27.85
2019-06-01T09:46:45.295Z,27.71
2019-06-01T09:47:45.718Z,27.7
2019-06-01T09:48:45.046Z,27.71
2019-06-01T09:49:45.549Z,27.58
2019-06-01T09:50:45.272Z,27.45
2019-06-01T09:51:45.049Z,27.39
2019-06-01T09:52:45.542Z,27.26
2019-06-01T09:53:45.544Z,27.15
2019-06-01T09:54:45.326Z,27.08
2019-06-01T09:55:45.548Z,26.99
2019-06-01T09:56:45.570Z,26.81
2019-06-01T09:57:45.327Z,26.71
2019-06-01T09:58:45.412Z,26.73
2019-06-01T09:59:45.562Z,26.84
2019-06-01T10:00:48.297Z,26.89
2019-06-01T10:01:45.356Z,26.99
2019-06-01T10:02:45.637Z,27.02
2019-06-01T10:03:45.336Z,27.15
2019-06-01T10:04:45.595Z,27.32
2019-06-01T10:06:03.218Z,27.55
2019-06-01T10:06:45.351Z,27.63
2019-06-01T10:07:46.118Z,27.74
2019-06-01T10:08:45.370Z,27.8
2019-06-01T10:09:46.722Z,27.83
2019-06-01T10:10:46.811Z,27.59
2019-06-01T10:11:47.110Z,27.54
2019-06-01T10:12:46.487Z,27.63
2019-06-01T10:13:45.652Z,27.44
2019-06-01T10:14:45.402Z,27.21
2019-06-01T10:15:45.757Z,27.14
2019-06-01T10:16:45.732Z,27
2019-06-01T10:17:45.663Z,26.83
2019-06-01T10:18:45.668Z,26.92
2019-06-01T10:19:45.662Z,27
2019-06-01T10:20:46.230Z,26.92
2019-06-01T10:21:46.423Z,26.88
2019-06-01T10:22:46.193Z,27.14
2019-06-01T10:23:51.484Z,27.3
2019-06-01T10:24:46.208Z,27.52
2019-06-01T10:25:45.466Z,27.64
2019-06-01T10:26:46.711Z,27.75
2019-06-01T10:27:45.513Z,27.83
2019-06-01T10:28:46.717Z,27.51
2019-06-01T10:29:45.749Z,27.37
2019-06-01T10:30:46.579Z,27.3
2019-06-01T10:31:46.482Z,27.25
2019-06-01T10:32:46.726Z,27.25
2019-06-01T10:33:58.594Z,27.32
2019-06-01T10:34:46.785Z,27.29
2019-06-01T10:35:45.787Z,27.36
2019-06-01T10:36:46.679Z,27.2
2019-06-01T10:37:46.562Z,27.35
2019-06-01T10:38:46.069Z,27.39
2019-06-01T10:39:45.941Z,27.58
2019-06-01T10:40:46.609Z,27.71
2019-06-01T10:41:46.098Z,27.87
2019-06-01T10:42:46.474Z,27.95
2019-06-01T10:43:46.657Z,28.12
2019-06-01T10:44:50.353Z,28.35
2019-06-01T10:45:46.840Z,28.23
2019-06-01T10:46:46.738Z,28.27
2019-06-01T10:47:47.115Z,28.29
2019-06-01T10:48:46.979Z,28.22
2019-06-01T10:49:46.716Z,28.2
2019-06-01T10:50:47.120Z,28.25
2019-06-01T10:51:46.894Z,28.08
2019-06-01T10:52:47.106Z,27.98
2019-06-01T10:53:48.104Z,27.83
2019-06-01T10:54:47.012Z,27.86
2019-06-01T10:55:47.245Z,27.8
2019-06-01T10:56:46.820Z,27.63
2019-06-01T10:57:45.889Z,27.51
2019-06-01T10:59:04.959Z,27.48
2019-06-01T10:59:45.367Z,27.51
2019-06-01T11:00:55.040Z,27.44
2019-06-01T11:01:45.881Z,27.45
2019-06-01T11:02:45.893Z,27.25
2019-06-01T11:03:45.888Z,27.2
2019-06-01T11:04:45.979Z,27.27
2019-06-01T11:05:45.402Z,27.3
2019-06-01T11:06:52.485Z,27.3
2019-06-01T11:07:45.927Z,27.29
2019-06-01T11:08:45.954Z,27.32
2019-06-01T11:09:45.746Z,27.4
2019-06-01T11:10:45.756Z,27.3
2019-06-01T11:11:45.764Z,27.32
2019-06-01T11:12:45.980Z,27.44
2019-06-01T11:13:45.956Z,27.6
2019-06-01T11:14:46.144Z,27.58
2019-06-01T11:15:46.041Z,27.54
2019-06-01T11:16:51.273Z,27.48
2019-06-01T11:17:45.829Z,27.45
2019-06-01T11:18:46.407Z,27.51
2019-06-01T11:19:46.650Z,27.52
2019-06-01T11:20:46.345Z,27.58
2019-06-01T11:21:46.558Z,27.55
2019-06-01T11:22:46.371Z,27.52
2019-06-01T11:23:50.915Z,27.59
2019-06-01T11:24:46.464Z,27.68
2019-06-01T11:25:46.476Z,27.83
2019-06-01T11:26:46.523Z,28.1
2019-06-01T11:27:46.487Z,28.22
2019-06-01T11:28:46.820Z,28.44
2019-06-01T11:29:54.432Z,28.7
2019-06-01T11:30:46.640Z,28.86
2019-06-01T11:31:46.982Z,28.98
2019-06-01T11:32:48.062Z,29.08
2019-06-01T11:33:46.943Z,29.2
2019-06-01T11:34:47.012Z,29.17
2019-06-01T11:35:47.520Z,29.29
2019-06-01T11:37:08.965Z,29.41
2019-06-01T11:37:46.976Z,29.41
2019-06-01T11:38:47.548Z,29.44
2019-06-01T11:39:47.266Z,29.51
2019-06-01T11:40:47.560Z,29.54
2019-06-01T11:41:47.440Z,29.65
2019-06-01T11:42:47.506Z,29.59
2019-06-01T11:43:48.436Z,29.63
2019-06-01T11:44:47.104Z,29.66
2019-06-01T11:45:45.901Z,29.61
2019-06-01T11:46:45.867Z,29.5
2019-06-01T11:47:47.510Z,29.17
2019-06-01T11:48:47.518Z,28.91
2019-06-01T11:49:47.407Z,28.63
2019-06-01T11:50:47.697Z,28.57
2019-06-01T11:51:47.672Z,28.54
2019-06-01T11:52:46.152Z,28.66
2019-06-01T11:53:48.017Z,28.69
2019-06-01T11:54:45.912Z,28.74
2019-06-01T11:55:46.166Z,28.63
2019-06-01T11:56:46.175Z,28.6
2019-06-01T11:57:46.434Z,28.64
2019-06-01T11:58:46.267Z,28.69
2019-06-01T11:59:46.186Z,28.59
2019-06-01T12:00:46.313Z,28.39
2019-06-01T12:01:46.641Z,28.35
2019-06-01T12:02:46.689Z,28.26
2019-06-01T12:03:46.592Z,28.32
2019-06-01T12:04:46.757Z,28.32
2019-06-01T12:05:47.269Z,28.38
2019-06-01T12:06:46.836Z,28.3
2019-06-01T12:07:46.800Z,28.35
2019-06-01T12:08:46.850Z,28.45
2019-06-01T12:09:46.643Z,28.45
2019-06-01T12:10:47.836Z,28.54
2019-06-01T12:11:46.976Z,28.7
2019-06-01T12:12:47.511Z,28.64
2019-06-01T12:13:47.050Z,28.75
2019-06-01T12:14:49.191Z,28.59
2019-06-01T12:15:47.103Z,28.45
2019-06-01T12:16:47.385Z,28.3
2019-06-01T12:17:47.753Z,28.2
2019-06-01T12:18:47.194Z,28.04
2019-06-01T12:19:47.256Z,28.04
2019-06-01T12:20:47.512Z,27.89
2019-06-01T12:21:47.816Z,27.83
2019-06-01T12:22:47.298Z,27.64
2019-06-01T12:23:48.013Z,27.63
2019-06-01T12:24:45.830Z,27.68
2019-06-01T12:25:46.976Z,27.82
2019-06-01T12:26:47.490Z,27.89
2019-06-01T12:27:46.525Z,27.83
2019-06-01T12:28:46.223Z,27.83
2019-06-01T12:29:46.345Z,27.86
2019-06-01T12:30:46.377Z,27.77
2019-06-01T12:31:46.630Z,27.7
2019-06-01T12:32:48.690Z,27.74
2019-06-01T12:33:46.850Z,27.89
2019-06-01T12:34:48.041Z,27.86
2019-06-01T12:35:46.808Z,27.85
2019-06-01T12:36:48.771Z,27.87
2019-06-01T12:38:26.261Z,27.98
2019-06-01T12:38:46.506Z,28.07
2019-06-01T12:39:51.168Z,28.04
2019-06-01T12:40:47.695Z,28.08
2019-06-01T12:41:46.173Z,28.11
2019-06-01T12:42:47.721Z,28.1
2019-06-01T12:43:46.170Z,28.1
2019-06-01T12:44:46.221Z,27.95
2019-06-01T12:45:46.420Z,27.85
2019-06-01T12:46:46.924Z,27.96
2019-06-01T12:47:49.385Z,27.9
2019-06-01T12:48:46.353Z,27.73
2019-06-01T12:49:48.195Z,27.55
2019-06-01T12:50:52.507Z,27.59
2019-06-01T12:51:49.347Z,27.73
2019-06-01T12:52:46.811Z,27.98
2019-06-01T12:53:46.955Z,28.2
2019-06-01T12:54:48.930Z,28.25
2019-06-01T12:55:47.425Z,28.49